METAR - Ísland

Uppfært síðast 15.09.2019 - kl. 20:56

SIGMET síðustu 6 klst.

Engin SIGMET skeyti bárust síðustu 6 klst.

METAR síðustu 3 klst

Flugv.TímiSkeyti
BIAR2019-09-15 20.00METAR BIAR 152000Z 16012KT 130V190 9999 SCT058 06/02 Q0999 RMK WIND VADLAHEIDI 21023KT
BIAR2019-09-15 19.00METAR BIAR 151900Z 18008KT 9999 SCT058 07/02 Q0998 RMK WIND VADLAHEIDI 21023KT
BIAR2019-09-15 18.00METAR BIAR 151800Z 17006KT 140V230 9999 SCT034 08/03 Q0999 RMK WIND VADLAHEIDI 16020KT
BIEG2019-09-15 20.00METAR BIEG 152000Z 21012KT 9999 FEW061 SCT089 08/02 Q1000 RMK WIND GAGNHEIDI 20017KT
BIEG2019-09-15 19.00METAR BIEG 151900Z 16014KT 9999 -RA FEW042 SCT060 BKN080 08/03 Q1000 RMK WIND GAGNHEIDI 18016KT
BIEG2019-09-15 18.00METAR BIEG 151800Z 17014KT 9999 FEW035 BKN056 BKN068 08/02 Q1001 RMK WIND GAGNHEIDI 18022KT
BIIS2019-09-15 18.00METAR BIIS 151800Z VRB03KT 9999 RA FEW020 BKN030 07/02 Q0994
BIKF2019-09-15 20.30METAR BIKF 152030Z 27026G37KT 9999 BKN034 05/M02 Q1004
BIKF2019-09-15 20.00METAR BIKF 152000Z 27025G35KT 9999 SCT035 05/M02 Q1004
BIKF2019-09-15 19.30METAR BIKF 151930Z 26027KT 9999 FEW024 SCT035 05/M01 Q1003
BIKF2019-09-15 19.00METAR BIKF 151900Z 26029KT 9999 FEW023 BKN036 06/M01 Q1003
BIKF2019-09-15 18.30METAR BIKF 151830Z 26026G37KT 9999 FEW024TCU BKN035 06/M01 Q1002
BIKF2019-09-15 18.00METAR BIKF 151800Z 25032G42KT 9999 -SHRA SCT024TCU SCT037 BKN046 06/M01 Q1002
BIRK2019-09-15 20.00METAR BIRK 152000Z 26021G32KT 9999 VCSH FEW028CB SCT032 BKN039 06/M03 Q1004
BIRK2019-09-15 19.00METAR BIRK 151900Z 25024KT 9999 VCSH FEW028CB SCT042 07/M01 Q1003
BIRK2019-09-15 18.00METAR BIRK 151800Z 25024KT 9999 -SHRA FEW023 BKN034CB 07/01 Q1002
BIVM2019-09-15 18.00METAR BIVM 151800Z 28020G30KT 9999 RA FEW022 07/05 Q1004

Textaspár eru skrifaðar af vakthafandi veðurfræðingi á Veðurstofu Íslands.




Aðrir tengdir vefir



Þetta vefsvæði byggir á Eplica